Time;durP1;ratioP1;P1;durP2;ratioP2;P2;SDS_P1;SDS_P2;PMS_P1;PMS_P2;Temp;Humidity;BMP_temperature;BMP_pressure;BME280_temperature;BME280_humidity;BME280_pressure;Samples;Min_cycle;Max_cycle;Signal;HPM_P1;HPM_P2
2023/04/21 00:02:05;;;;;;;;;36.50;28.75;;;;;10.70;44.41;100729.09;5059458;28;46557;-59
2023/04/21 00:04:31;;;;;;;;;27.75;25.00;;;;;10.68;44.31;100727.38;5059897;28;45383;-59
2023/04/21 00:06:57;;;;;;;;;22.50;22.50;;;;;10.65;44.51;100722.13;5059893;28;45388;-59
2023/04/21 00:09:22;;;;;;;;;24.75;24.75;;;;;10.64;44.39;100718.66;5059435;28;45530;-61
2023/04/21 00:11:48;;;;;;;;;29.25;24.75;;;;;10.62;44.40;100720.44;5028103;28;45363;-59
2023/04/21 00:14:13;;;;;;;;;26.50;25.00;;;;;10.59;44.56;100712.59;5059716;28;47843;-59
2023/04/21 00:16:39;;;;;;;;;30.00;26.25;;;;;10.58;44.36;100718.75;5057269;28;45493;-59
2023/04/21 00:19:05;;;;;;;;;28.00;28.00;;;;;10.54;44.51;100707.41;5059818;28;45387;-59
2023/04/21 00:21:35;;;;;;;;;25.50;22.00;;;;;10.53;44.43;100704.81;5059558;28;46449;-60
2023/04/21 00:24:00;;;;;;;;;30.00;25.25;;;;;10.50;44.55;100707.47;5059558;28;45340;-59
2023/04/21 00:26:25;;;;;;;;;28.50;25.75;;;;;10.49;44.49;100708.34;5059448;28;45256;-60
2023/04/21 00:28:51;;;;;;;;;26.25;24.50;;;;;10.49;44.38;100714.50;5059688;28;45293;-60
2023/04/21 00:31:16;;;;;;;;;28.25;25.50;;;;;10.47;44.99;100710.16;5038913;28;55344;-60
2023/04/21 00:33:41;;;;;;;;;33.50;25.25;;;;;10.44;44.74;100703.19;5058755;28;52078;-60
2023/04/21 00:36:07;;;;;;;;;25.75;23.50;;;;;10.43;44.56;100704.06;5041452;28;45493;-60
2023/04/21 00:38:32;;;;;;;;;29.50;26.75;;;;;10.42;44.61;100693.59;5059294;28;45365;-60
2023/04/21 00:40:57;;;;;;;;;26.50;26.00;;;;;10.37;44.72;100681.38;5059253;28;46425;-60
2023/04/21 00:43:24;;;;;;;;;25.75;24.50;;;;;10.34;44.63;100670.00;5041332;28;45336;-60
2023/04/21 00:45:50;;;;;;;;;29.00;21.75;;;;;10.35;44.69;100680.50;5057959;28;45275;-60
2023/04/21 00:48:15;;;;;;;;;24.25;24.25;;;;;10.32;44.62;100675.28;5059358;28;45382;-62
2023/04/21 00:50:43;;;;;;;;;29.50;27.00;;;;;10.34;44.89;100680.50;5059099;28;46177;-60
2023/04/21 00:53:09;;;;;;;;;27.00;23.00;;;;;10.31;44.94;100680.56;5059388;28;45230;-60
2023/04/21 00:55:35;;;;;;;;;26.50;21.50;;;;;10.29;45.28;100677.97;5059209;28;45732;-60
2023/04/21 00:58:02;;;;;;;;;30.00;28.75;;;;;10.27;44.93;100679.72;5059255;28;45347;-60
2023/04/21 01:00:28;;;;;;;;;29.00;25.75;;;;;10.25;44.59;100681.50;5040806;28;47669;-60
2023/04/21 01:02:54;;;;;;;;;24.75;24.25;;;;;10.23;44.78;100670.16;5059256;28;45312;-60
2023/04/21 01:05:19;;;;;;;;;30.75;27.50;;;;;10.23;45.02;100672.78;5062398;28;45262;-60
2023/04/21 01:07:45;;;;;;;;;30.50;28.00;;;;;10.21;45.07;100664.06;5062578;28;45155;-60
2023/04/21 01:10:10;;;;;;;;;28.25;25.00;;;;;10.20;44.86;100657.06;5062022;28;46185;-60
2023/04/21 01:12:44;;;;;;;;;25.25;23.50;;;;;10.19;45.10;100663.22;5062672;28;45186;-60
2023/04/21 01:15:11;;;;;;;;;30.25;27.75;;;;;10.17;44.89;100654.50;5062677;28;45339;-60
2023/04/21 01:17:37;;;;;;;;;28.75;25.25;;;;;10.16;45.13;100656.25;5062056;28;45237;-60
2023/04/21 01:20:07;;;;;;;;;31.50;27.75;;;;;10.14;44.96;100649.25;5062218;28;46099;-60
2023/04/21 01:22:36;;;;;;;;;27.50;26.50;;;;;10.11;45.29;100646.69;5062455;28;45510;-61
2023/04/21 01:25:02;;;;;;;;;30.50;28.25;;;;;10.10;44.91;100651.09;5062234;28;45237;-60
2023/04/21 01:27:27;;;;;;;;;27.75;27.25;;;;;10.11;45.22;100657.19;5062215;28;45244;-61
2023/04/21 01:29:53;;;;;;;;;26.75;23.50;;;;;10.05;45.28;100650.25;5062166;28;45749;-61
2023/04/21 01:32:22;;;;;;;;;28.00;25.25;;;;;10.06;45.21;100654.63;5062206;28;45216;-60
2023/04/21 01:34:48;;;;;;;;;28.50;25.75;;;;;10.05;45.06;100659.03;5062172;28;45257;-61
2023/04/21 01:37:16;;;;;;;;;31.25;27.25;;;;;10.03;45.10;100649.44;5062113;28;45399;-60
2023/04/21 01:39:45;;;;;;;;;26.00;24.00;;;;;10.02;45.09;100647.69;5061842;28;45294;-61
2023/04/21 01:42:11;;;;;;;;;27.75;24.50;;;;;9.97;45.29;100647.75;5062255;28;45641;-61
2023/04/21 01:44:37;;;;;;;;;27.25;22.25;;;;;9.96;45.31;100640.78;5062093;28;45466;-61
2023/04/21 01:47:03;;;;;;;;;29.75;26.75;;;;;9.95;45.39;100633.78;5061957;28;45458;-61
2023/04/21 01:49:28;;;;;;;;;26.00;23.25;;;;;9.93;45.64;100633.78;5061459;28;45444;-61
2023/04/21 01:51:54;;;;;;;;;31.25;25.00;;;;;9.91;45.28;100637.31;5061965;28;45418;-61
2023/04/21 01:54:19;;;;;;;;;32.50;27.75;;;;;9.92;45.51;100644.31;5061925;28;45301;-61
2023/04/21 01:56:45;;;;;;;;;27.75;25.25;;;;;9.88;45.44;100643.47;5061959;28;45253;-61
2023/04/21 01:59:10;;;;;;;;;28.00;26.00;;;;;9.88;45.56;100635.59;5061517;28;46019;-61
2023/04/21 02:01:35;;;;;;;;;25.00;22.00;;;;;9.85;45.54;100624.28;5061736;28;45228;-61
2023/04/21 02:04:02;;;;;;;;;31.25;28.50;;;;;9.86;45.43;100628.63;5061878;28;45301;-61
2023/04/21 02:06:30;;;;;;;;;28.50;25.75;;;;;9.84;45.64;100622.56;5046740;28;45595;-61
2023/04/21 02:08:56;;;;;;;;;30.25;25.75;;;;;9.82;45.75;100621.69;5052295;28;46413;-61
2023/04/21 02:11:23;;;;;;;;;28.75;27.00;;;;;9.80;45.68;100624.34;5056999;28;46528;-61
2023/04/21 02:13:49;;;;;;;;;25.50;22.50;;;;;9.79;45.41;100614.75;5057319;28;45496;-61
2023/04/21 02:16:15;;;;;;;;;29.50;26.50;;;;;9.78;45.65;100626.13;5056230;28;45641;-61
2023/04/21 02:18:40;;;;;;;;;24.00;22.50;;;;;9.76;45.45;100620.91;5055700;28;46980;-61
2023/04/21 02:21:06;;;;;;;;;27.75;26.50;;;;;9.76;45.55;100620.91;5056610;28;45300;-61
2023/04/21 02:23:31;;;;;;;;;28.75;24.75;;;;;9.74;45.41;100611.31;5056965;28;46334;-63
2023/04/21 02:25:57;;;;;;;;;30.75;25.75;;;;;9.74;45.91;100620.03;5056476;28;45466;-61
2023/04/21 02:28:22;;;;;;;;;28.50;24.00;;;;;9.74;45.48;100603.44;5057016;28;46311;-62
2023/04/21 02:30:47;;;;;;;;;36.75;27.75;;;;;9.74;45.92;100612.16;5056604;28;46340;-62
2023/04/21 02:33:12;;;;;;;;;27.50;25.25;;;;;9.73;45.79;100610.41;5037816;28;46569;-60
2023/04/21 02:35:38;;;;;;;;;29.75;26.25;;;;;9.74;45.68;100608.69;5057726;28;45638;-60
2023/04/21 02:38:06;;;;;;;;;28.25;23.00;;;;;9.71;45.69;100606.97;5059397;28;46009;-62
2023/04/21 02:40:31;;;;;;;;;27.50;26.25;;;;;9.72;45.70;100613.06;5060790;28;45285;-62
2023/04/21 02:42:57;;;;;;;;;25.25;23.50;;;;;9.70;45.93;100615.72;5061106;28;45425;-61
2023/04/21 02:45:22;;;;;;;;;27.50;25.25;;;;;9.74;46.20;100613.94;5060866;28;45661;-61
2023/04/21 02:47:47;;;;;;;;;29.50;26.75;;;;;9.73;46.15;100610.41;5060236;28;50294;-61
2023/04/21 02:50:13;;;;;;;;;24.25;22.50;;;;;9.73;46.20;100604.31;5060829;28;52405;-61
2023/04/21 02:52:38;;;;;;;;;26.00;23.50;;;;;9.74;46.21;100606.91;5060944;28;45319;-61
2023/04/21 02:55:04;;;;;;;;;29.75;26.00;;;;;9.75;46.21;100599.94;5060883;28;45418;-61
2023/04/21 02:57:29;;;;;;;;;25.00;22.50;;;;;9.75;46.14;100603.41;5060504;28;46001;-61
2023/04/21 02:59:54;;;;;;;;;30.00;25.00;;;;;9.76;46.06;100605.16;5061156;28;45295;-61
2023/04/21 03:02:20;;;;;;;;;28.25;24.00;;;;;9.76;46.25;100606.91;5060734;28;45308;-61
2023/04/21 03:04:45;;;;;;;;;26.25;24.25;;;;;9.72;46.36;100595.59;5060847;28;45249;-61
2023/04/21 03:07:12;;;;;;;;;29.25;26.00;;;;;9.74;46.16;100599.03;5060497;28;45231;-61
2023/04/21 03:09:38;;;;;;;;;26.00;23.50;;;;;9.75;46.21;100602.56;5059967;28;45236;-61
2023/04/21 03:12:03;;;;;;;;;28.50;25.50;;;;;9.76;46.22;100593.78;5059657;28;45404;-61
2023/04/21 03:14:29;;;;;;;;;29.75;25.00;;;;;9.76;46.48;100585.94;5060787;28;45242;-61
2023/04/21 03:16:54;;;;;;;;;19.25;17.75;;;;;9.77;46.40;100585.00;5059718;28;52710;-61
2023/04/21 03:19:19;;;;;;;;;22.00;21.00;;;;;9.75;46.21;100582.41;5060606;28;46005;-61
2023/04/21 03:21:45;;;;;;;;;26.75;26.50;;;;;9.78;46.48;100580.66;5060566;28;45174;-61
2023/04/21 03:24:10;;;;;;;;;27.00;25.00;;;;;9.78;46.38;100586.75;5061933;28;44725;-62
2023/04/21 03:26:39;;;;;;;;;25.75;24.00;;;;;9.80;46.39;100591.97;5059707;28;45360;-61
2023/04/21 03:29:04;;;;;;;;;26.50;23.75;;;;;9.78;46.73;100584.13;5056163;28;45314;-60
2023/04/21 03:31:33;;;;;;;;;28.75;23.50;;;;;9.80;46.57;100590.22;5056647;28;45241;-62
2023/04/21 03:33:58;;;;;;;;;24.25;21.25;;;;;9.79;46.39;100578.00;5060509;28;45517;-60
2023/04/21 03:36:23;;;;;;;;;29.75;26.00;;;;;9.81;46.56;100577.97;5059948;28;46224;-61
2023/04/21 03:38:49;;;;;;;;;26.00;24.75;;;;;9.78;46.66;100573.63;5060383;28;45249;-60
2023/04/21 03:41:14;;;;;;;;;22.00;20.75;;;;;9.79;46.63;100577.13;5042028;28;45256;-60
2023/04/21 03:43:39;;;;;;;;;30.50;29.25;;;;;9.81;46.43;100576.22;5045514;28;45243;-60
2023/04/21 03:46:05;;;;;;;;;30.00;27.25;;;;;9.81;46.44;100564.84;5041764;28;46095;-60
2023/04/21 03:48:30;;;;;;;;;29.75;26.25;;;;;9.83;46.38;100570.94;5059785;28;50886;-60
2023/04/21 03:50:56;;;;;;;;;33.25;29.25;;;;;9.84;46.62;100568.28;5060168;28;45273;-60
2023/04/21 03:53:21;;;;;;;;;31.75;29.50;;;;;9.84;46.53;100567.44;5060062;28;45406;-61
2023/04/21 03:55:49;;;;;;;;;29.50;26.50;;;;;9.85;46.74;100558.66;5059826;28;46979;-61
2023/04/21 03:58:15;;;;;;;;;28.25;25.50;;;;;9.86;46.46;100549.91;5060017;28;45383;-61
2023/04/21 04:00:41;;;;;;;;;32.00;28.75;;;;;9.83;46.60;100550.81;5059786;28;45301;-61
2023/04/21 04:03:06;;;;;;;;;27.75;27.75;;;;;9.85;46.51;100551.66;5041978;28;45276;-60
2023/04/21 04:05:34;;;;;;;;;30.50;25.75;;;;;9.86;46.80;100560.41;5059629;28;47640;-60
2023/04/21 04:07:59;;;;;;;;;24.25;22.75;;;;;9.85;46.77;100553.41;5059909;28;45195;-61
2023/04/21 04:10:24;;;;;;;;;32.75;24.00;;;;;9.85;46.79;100550.78;5059460;28;45186;-60
2023/04/21 04:12:50;;;;;;;;;24.00;20.25;;;;;9.84;46.59;100538.56;5059886;28;45375;-61
2023/04/21 04:15:15;;;;;;;;;27.75;27.75;;;;;9.84;46.80;100539.44;5059342;28;46038;-60
2023/04/21 04:17:40;;;;;;;;;31.25;27.50;;;;;9.86;46.95;100547.28;5059405;28;45352;-60
2023/04/21 04:20:07;;;;;;;;;33.25;27.00;;;;;9.84;46.68;100539.44;5059713;28;45321;-60
2023/04/21 04:22:32;;;;;;;;;26.75;26.25;;;;;9.87;46.94;100543.75;5059724;28;45328;-61
2023/04/21 04:25:00;;;;;;;;;27.75;26.00;;;;;9.88;46.92;100545.50;5059471;28;45336;-60
2023/04/21 04:27:25;;;;;;;;;23.75;21.75;;;;;9.84;47.00;100541.19;5059560;28;45327;-60
2023/04/21 04:29:51;;;;;;;;;25.50;20.75;;;;;9.84;47.04;100542.06;5059708;28;45474;-61
2023/04/21 04:32:17;;;;;;;;;24.25;21.00;;;;;9.88;47.05;100551.59;5059326;28;45439;-60
2023/04/21 04:34:43;;;;;;;;;28.75;24.00;;;;;9.87;46.68;100549.91;5059417;28;46617;-60
2023/04/21 04:37:10;;;;;;;;;25.00;22.50;;;;;9.89;47.07;100547.25;5059283;28;45265;-61
2023/04/21 04:39:36;;;;;;;;;24.50;24.25;;;;;9.88;47.19;100550.75;5043187;28;45269;-60
2023/04/21 04:42:02;;;;;;;;;24.25;22.00;;;;;9.84;46.83;100544.69;5044917;28;45590;-60
2023/04/21 04:44:28;;;;;;;;;25.50;23.75;;;;;9.88;47.13;100545.50;5062802;28;47013;-60
2023/04/21 04:46:53;;;;;;;;;23.50;20.25;;;;;9.87;46.92;100549.91;5044611;28;45411;-61
2023/04/21 04:49:18;;;;;;;;;23.50;21.75;;;;;9.87;46.98;100544.66;5062913;28;45316;-60
2023/04/21 04:51:44;;;;;;;;;28.00;24.25;;;;;9.87;47.13;100546.38;5062771;28;45631;-60
2023/04/21 04:54:09;;;;;;;;;25.25;22.50;;;;;9.84;47.15;100539.44;5035701;28;46112;-61
2023/04/21 04:56:35;;;;;;;;;20.00;19.75;;;;;9.88;47.16;100548.13;5058635;28;45850;-60
2023/04/21 04:59:00;;;;;;;;;29.75;27.25;;;;;9.85;46.99;100541.16;5057578;28;45450;-60
2023/04/21 05:01:29;;;;;;;;;32.75;26.50;;;;;9.85;46.98;100548.16;5058579;28;46214;-61
2023/04/21 05:03:55;;;;;;;;;27.00;25.25;;;;;9.85;47.08;100546.41;5057823;28;46302;-60
2023/04/21 05:06:20;;;;;;;;;26.50;25.50;;;;;9.84;47.08;100549.06;5058063;28;45849;-60
2023/04/21 05:08:46;;;;;;;;;29.75;24.00;;;;;9.84;47.06;100552.56;5057792;28;45497;-59
2023/04/21 05:11:11;;;;;;;;;27.00;26.00;;;;;9.84;47.34;100546.44;5058193;28;45477;-59
2023/04/21 05:13:36;;;;;;;;;31.25;26.50;;;;;9.87;47.25;100551.63;5058623;28;45528;-60
2023/04/21 05:16:02;;;;;;;;;26.75;25.00;;;;;9.87;47.36;100549.00;5057382;28;45354;-61
2023/04/21 05:18:28;;;;;;;;;33.25;28.75;;;;;9.88;47.36;100550.75;5040004;28;45891;-60
2023/04/21 05:20:53;;;;;;;;;28.25;26.00;;;;;9.87;47.27;100549.91;5057604;28;45454;-60
2023/04/21 05:23:19;;;;;;;;;31.25;28.00;;;;;9.91;47.13;100550.69;5057577;28;50170;-60
2023/04/21 05:25:44;;;;;;;;;31.25;27.25;;;;;9.92;47.46;100547.19;5059319;28;45387;-67
2023/04/21 05:28:10;;;;;;;;;26.50;24.75;;;;;9.90;47.28;100549.00;5043052;28;45368;-66
2023/04/21 05:30:35;;;;;;;;;30.50;28.50;;;;;9.94;47.45;100555.91;5061580;28;45400;-62
2023/04/21 05:33:01;;;;;;;;;28.50;26.25;;;;;9.95;47.36;100557.66;5025832;28;45904;-60
2023/04/21 05:35:29;;;;;;;;;29.00;25.50;;;;;9.95;47.52;100535.78;5052342;28;46686;-58
2023/04/21 05:37:55;;;;;;;;;35.00;29.00;;;;;9.97;47.44;100534.84;5043044;28;45533;-61
2023/04/21 05:40:20;;;;;;;;;25.25;23.00;;;;;9.96;47.22;100533.16;5038517;28;45577;-60
2023/04/21 05:42:46;;;;;;;;;29.75;26.00;;;;;10.02;47.58;100546.16;5057781;28;45553;-59
2023/04/21 05:45:11;;;;;;;;;32.25;29.75;;;;;10.01;47.56;100544.44;5056586;28;45394;-60
2023/04/21 05:47:37;;;;;;;;;29.75;27.25;;;;;10.02;47.63;100543.53;5039887;28;45436;-62
2023/04/21 05:50:03;;;;;;;;;29.75;26.75;;;;;9.99;47.67;100554.09;5056120;28;45469;-60
2023/04/21 05:52:28;;;;;;;;;30.50;27.75;;;;;10.01;47.74;100556.69;5057342;28;45878;-60
2023/04/21 05:54:54;;;;;;;;;29.00;26.75;;;;;10.00;47.41;100544.44;5056040;28;51772;-61
2023/04/21 05:57:19;;;;;;;;;31.50;28.25;;;;;10.03;47.59;100547.03;5056842;28;45485;-60
2023/04/21 05:59:45;;;;;;;;;33.25;28.75;;;;;10.02;47.99;100542.66;5057591;28;45477;-61
2023/04/21 06:02:10;;;;;;;;;30.50;26.00;;;;;10.03;47.75;100542.63;5055713;28;48780;-60
2023/04/21 06:04:35;;;;;;;;;34.75;30.25;;;;;10.04;47.69;100544.38;5057579;28;45464;-60
2023/04/21 06:07:05;;;;;;;;;38.75;30.00;;;;;10.02;47.86;100540.06;5056732;28;45438;-61
2023/04/21 06:09:31;;;;;;;;;29.50;28.50;;;;;10.02;47.36;100543.53;5056787;28;45501;-60
2023/04/21 06:11:56;;;;;;;;;33.00;28.50;;;;;10.03;47.77;100542.63;5038617;28;46034;-60
2023/04/21 06:14:21;;;;;;;;;37.75;32.25;;;;;10.05;47.65;100542.63;5038855;28;45414;-61
2023/04/21 06:16:47;;;;;;;;;32.25;30.75;;;;;10.05;47.75;100547.88;5055678;28;46397;-61
2023/04/21 06:19:12;;;;;;;;;35.75;27.75;;;;;10.04;47.91;100549.63;5056514;28;45452;-64
2023/04/21 06:21:37;;;;;;;;;41.25;33.50;;;;;10.04;47.81;100541.75;5056682;28;45511;-61
2023/04/21 06:24:03;;;;;;;;;38.25;32.25;;;;;10.03;47.90;100542.63;5055405;28;45565;-61
2023/04/21 06:26:29;;;;;;;;;31.75;31.50;;;;;10.03;47.76;100542.63;5056983;28;45551;-61
2023/04/21 06:28:54;;;;;;;;;34.25;31.00;;;;;10.02;48.11;100543.53;5056514;28;45381;-61
2023/04/21 06:31:20;;;;;;;;;38.00;31.25;;;;;10.02;47.82;100545.28;5055067;28;47387;-60
2023/04/21 06:33:45;;;;;;;;;36.25;31.00;;;;;9.98;48.02;100541.84;5056669;28;45558;-61
2023/04/21 06:36:10;;;;;;;;;34.50;31.50;;;;;9.97;47.89;100531.38;5056480;28;45444;-61
2023/04/21 06:38:36;;;;;;;;;34.25;29.50;;;;;10.01;48.13;100538.31;5056797;28;45423;-61
2023/04/21 06:41:03;;;;;;;;;36.50;33.25;;;;;10.01;48.07;100539.19;5056060;28;45958;-62
2023/04/21 06:43:28;;;;;;;;;35.50;31.25;;;;;9.99;48.03;100538.34;5056537;28;45652;-60
2023/04/21 06:45:54;;;;;;;;;31.50;30.50;;;;;10.00;48.13;100545.34;5054777;28;45529;-60
2023/04/21 06:48:19;;;;;;;;;35.75;32.00;;;;;9.99;48.07;100533.09;5056598;28;45583;-62
2023/04/21 06:50:45;;;;;;;;;36.25;32.25;;;;;10.02;48.07;100542.66;5056132;28;47198;-61
2023/04/21 06:53:11;;;;;;;;;37.00;32.00;;;;;10.01;48.21;100533.94;5056769;28;45478;-61
2023/04/21 06:55:36;;;;;;;;;33.00;32.00;;;;;10.01;48.26;100528.69;5056869;28;45530;-61
2023/04/21 06:58:01;;;;;;;;;39.25;32.75;;;;;10.01;48.37;100533.94;5056112;28;45377;-61
2023/04/21 07:00:27;;;;;;;;;36.75;33.25;;;;;10.05;48.24;100543.50;5055955;28;45364;-61
2023/04/21 07:02:52;;;;;;;;;30.50;26.50;;;;;10.05;48.47;100537.34;5055275;28;45384;-61
2023/04/21 07:05:18;;;;;;;;;35.75;32.00;;;;;10.11;48.13;100539.03;5056684;28;45430;-62
2023/04/21 07:07:43;;;;;;;;;40.00;32.50;;;;;10.11;48.15;100537.28;5056325;28;45150;-61
2023/04/21 07:10:08;;;;;;;;;35.00;32.25;;;;;10.15;48.25;100535.47;5055275;28;46633;-61
2023/04/21 07:12:34;;;;;;;;;34.25;29.50;;;;;10.16;48.36;100529.31;5056687;28;45446;-62
2023/04/21 07:14:59;;;;;;;;;36.75;31.25;;;;;10.16;48.30;100524.06;5055333;28;45438;-61
2023/04/21 07:17:24;;;;;;;;;29.50;26.25;;;;;10.18;48.17;100530.19;5054445;28;45453;-61
2023/04/21 07:19:50;;;;;;;;;35.25;31.50;;;;;10.18;48.47;100527.56;5056192;28;47146;-61
2023/04/21 07:22:15;;;;;;;;;29.75;28.75;;;;;10.21;48.54;100522.25;5055983;28;45382;-61
2023/04/21 07:24:40;;;;;;;;;33.50;28.50;;;;;10.21;48.24;100515.25;5056062;28;45380;-61
2023/04/21 07:27:06;;;;;;;;;33.50;29.75;;;;;10.19;48.21;100513.53;5036524;28;45581;-61
2023/04/21 07:29:31;;;;;;;;;33.50;28.75;;;;;10.24;48.36;100516.97;5057628;28;46343;-61
2023/04/21 07:31:57;;;;;;;;;33.75;30.00;;;;;10.27;48.27;100516.03;5058546;28;54114;-60
2023/04/21 07:34:23;;;;;;;;;29.00;27.00;;;;;10.26;48.23;100509.91;5060360;28;45496;-60
2023/04/21 07:36:50;;;;;;;;;23.75;20.75;;;;;10.30;48.27;100513.34;5058963;28;45415;-60
2023/04/21 07:39:15;;;;;;;;;31.50;27.50;;;;;10.29;48.28;100515.13;5059947;28;46422;-60
2023/04/21 07:41:40;;;;;;;;;33.50;28.00;;;;;10.31;48.40;100523.81;5060282;28;45688;-60
2023/04/21 07:44:06;;;;;;;;;29.75;29.00;;;;;10.32;48.44;100519.44;5060272;28;45566;-60
2023/04/21 07:46:31;;;;;;;;;34.50;30.75;;;;;10.33;48.48;100524.66;5059070;28;49855;-60
2023/04/21 07:48:58;;;;;;;;;32.00;29.00;;;;;10.31;48.36;100518.56;5059570;28;46059;-61
2023/04/21 07:51:23;;;;;;;;;30.75;29.25;;;;;10.33;48.45;100515.94;5050597;28;46625;-60
2023/04/21 07:53:49;;;;;;;;;31.50;29.75;;;;;10.33;48.55;100522.03;5048337;28;45497;-60
2023/04/21 07:56:14;;;;;;;;;27.00;23.50;;;;;10.34;48.47;100521.16;5058588;28;45489;-61
2023/04/21 07:58:40;;;;;;;;;40.00;34.00;;;;;10.36;48.53;100524.66;5058663;28;45528;-59
2023/04/21 08:01:05;;;;;;;;;30.75;27.25;;;;;10.35;48.75;100517.66;5059466;28;45435;-60
2023/04/21 08:03:31;;;;;;;;;31.75;27.50;;;;;10.37;48.33;100510.63;5053368;28;45446;-60
2023/04/21 08:05:56;;;;;;;;;26.25;25.25;;;;;10.39;48.57;100508.84;5059037;28;54943;-60
2023/04/21 08:08:21;;;;;;;;;32.25;30.00;;;;;10.43;48.65;100516.66;5059636;28;45800;-60
2023/04/21 08:10:47;;;;;;;;;27.50;24.50;;;;;10.45;48.46;100518.38;5059360;28;45259;-60
2023/04/21 08:13:12;;;;;;;;;29.75;24.50;;;;;10.46;48.61;100509.59;5038476;28;45833;-60
2023/04/21 08:15:37;;;;;;;;;28.75;23.75;;;;;10.50;48.51;100518.28;5058507;28;45310;-60
2023/04/21 08:18:03;;;;;;;;;27.75;23.25;;;;;10.53;48.61;100515.63;5056815;28;46114;-60
2023/04/21 08:20:28;;;;;;;;;25.75;24.00;;;;;10.57;48.51;100510.28;5059562;28;45166;-60
2023/04/21 08:22:54;;;;;;;;;24.50;24.25;;;;;10.57;48.60;100512.91;5059853;28;45266;-60
2023/04/21 08:25:19;;;;;;;;;28.50;25.50;;;;;10.64;48.70;100516.31;5058628;28;45692;-59
2023/04/21 08:27:45;;;;;;;;;26.50;24.75;;;;;10.67;48.64;100515.38;5059355;28;46234;-59
2023/04/21 08:30:10;;;;;;;;;30.00;27.00;;;;;10.73;48.72;100513.50;5035509;28;45654;-60
2023/04/21 08:32:36;;;;;;;;;27.00;26.50;;;;;10.76;48.68;100507.31;5051928;28;45419;-59
2023/04/21 08:35:01;;;;;;;;;28.50;24.25;;;;;10.84;48.57;100520.31;5059415;28;45334;-59
2023/04/21 08:37:28;;;;;;;;;29.50;29.50;;;;;10.86;48.62;100511.50;5059218;28;45848;-59
2023/04/21 08:39:53;;;;;;;;;32.00;27.25;;;;;10.91;48.78;100515.81;5059152;28;45312;-59
2023/04/21 08:42:19;;;;;;;;;29.50;26.00;;;;;10.99;48.75;100520.03;5041352;28;45411;-59
2023/04/21 08:44:44;;;;;;;;;34.75;25.25;;;;;11.02;48.40;100517.34;5059219;28;45448;-59
2023/04/21 08:47:11;;;;;;;;;36.50;31.25;;;;;11.07;48.75;100514.63;5058903;28;46207;-59
2023/04/21 08:49:38;;;;;;;;;30.75;28.00;;;;;11.14;48.54;100512.72;5058963;28;45308;-59
2023/04/21 08:52:03;;;;;;;;;36.75;30.75;;;;;11.19;48.65;100522.28;5059322;28;45261;-59
2023/04/21 08:54:29;;;;;;;;;36.00;31.25;;;;;11.22;48.74;100506.41;5059201;28;45596;-59
2023/04/21 08:56:55;;;;;;;;;35.75;30.75;;;;;11.32;48.62;100516.72;5057602;28;46356;-59
2023/04/21 08:59:21;;;;;;;;;32.50;29.75;;;;;11.37;48.58;100504.34;5059136;28;45960;-59
2023/04/21 09:02:17;;;;;;;;;27.25;23.00;;;;;11.45;48.79;100509.47;5058958;28;45563;-59
2023/04/21 09:04:45;;;;;;;;;23.25;20.25;;;;;11.50;48.68;100513.72;5057963;28;46449;-59
2023/04/21 09:07:11;;;;;;;;;28.00;26.00;;;;;11.57;48.59;100510.97;5058819;28;45424;-59
2023/04/21 09:09:53;;;;;;;;;21.75;21.00;;;;;11.62;48.77;100512.59;5058640;28;45336;-59
2023/04/21 09:12:19;;;;;;;;;23.50;19.50;;;;;11.63;48.53;100493.25;5058884;28;45332;-59
2023/04/21 09:14:44;;;;;;;;;26.50;24.25;;;;;11.73;48.46;100495.69;5058544;28;45275;-59
2023/04/21 09:17:10;;;;;;;;;22.50;20.25;;;;;11.79;48.68;100498.19;5057944;28;54796;-59
2023/04/21 09:19:35;;;;;;;;;25.75;21.75;;;;;11.87;48.36;100506.75;5059083;28;45298;-59
2023/04/21 09:22:01;;;;;;;;;19.50;18.50;;;;;11.94;48.44;100502.25;5058914;28;45361;-59
2023/04/21 09:24:26;;;;;;;;;21.00;19.00;;;;;11.99;48.36;100500.38;5059466;28;45475;-59
2023/04/21 09:26:53;;;;;;;;;21.75;18.25;;;;;12.04;48.09;100506.41;5062070;28;46216;-59
2023/04/21 09:29:22;;;;;;;;;16.50;14.50;;;;;12.08;48.12;100504.56;5062377;28;45329;-59
2023/04/21 09:31:49;;;;;;;;;23.25;21.00;;;;;12.19;48.22;100508.66;5062026;28;45483;-59
2023/04/21 09:34:26;;;;;;;;;23.00;20.75;;;;;12.25;47.98;100512.94;5062188;28;45387;-59
2023/04/21 09:37:02;;;;;;;;;22.75;21.75;;;;;12.30;47.99;100510.16;5049643;28;47016;-59
2023/04/21 09:39:29;;;;;;;;;24.00;22.25;;;;;12.34;48.17;100504.78;5061957;28;45328;-59
2023/04/21 09:41:56;;;;;;;;;22.00;20.50;;;;;12.36;48.13;100499.47;5062301;28;45332;-59
2023/04/21 09:44:22;;;;;;;;;25.00;21.00;;;;;12.40;47.77;100498.50;5062037;28;45414;-59
2023/04/21 09:46:49;;;;;;;;;22.75;21.25;;;;;12.52;47.92;100494.69;5061764;28;46165;-59
2023/04/21 09:49:21;;;;;;;;;23.75;22.00;;;;;12.60;47.95;100497.09;5061941;28;45338;-59
2023/04/21 09:51:47;;;;;;;;;21.25;19.25;;;;;12.68;47.97;100495.16;5062053;28;45507;-59
2023/04/21 09:54:17;;;;;;;;;23.75;19.00;;;;;12.75;47.73;100494.06;5061577;28;45308;-59
2023/04/21 09:56:47;;;;;;;;;22.00;21.00;;;;;12.83;47.88;100491.22;5043610;28;48453;-59
2023/04/21 09:59:18;;;;;;;;;24.00;22.25;;;;;12.98;47.74;100497.81;5061706;28;45361;-59
2023/04/21 10:01:48;;;;;;;;;21.50;20.25;;;;;13.09;47.64;100482.56;5061707;28;45514;-59
2023/04/21 10:04:15;;;;;;;;;25.25;22.25;;;;;13.28;47.93;100488.19;5048520;28;45482;-59
2023/04/21 10:06:41;;;;;;;;;21.00;18.50;;;;;13.48;47.61;100495.53;5061461;28;45564;-59
2023/04/21 10:09:10;;;;;;;;;23.75;21.50;;;;;13.62;47.74;100481.91;5061277;28;46594;-59
2023/04/21 10:11:35;;;;;;;;;23.50;21.50;;;;;13.88;47.69;100487.28;5061607;28;45325;-59
2023/04/21 10:14:02;;;;;;;;;24.25;22.00;;;;;14.05;47.59;100482.31;5061215;28;45261;-60
2023/04/21 10:16:27;;;;;;;;;24.75;23.25;;;;;14.29;47.98;100485.94;5061005;28;46256;-59
2023/04/21 10:18:55;;;;;;;;;22.50;20.75;;;;;14.47;48.07;100475.63;5061387;28;45403;-60
2023/04/21 10:21:23;;;;;;;;;19.75;18.00;;;;;14.68;48.11;100478.47;5061868;28;45253;-60
2023/04/21 10:23:50;;;;;;;;;22.00;20.50;;;;;14.91;48.10;100481.16;5061588;28;45490;-59
2023/04/21 10:26:26;;;;;;;;;25.00;21.50;;;;;15.17;47.74;100473.16;5060951;28;45593;-60
2023/04/21 10:28:52;;;;;;;;;21.75;21.50;;;;;15.44;48.51;100464.19;5061330;28;45432;-60
2023/04/21 10:31:43;;;;;;;;;18.25;18.00;;;;;15.72;47.53;100471.06;5060850;28;45342;-58
2023/04/21 10:34:08;;;;;;;;;19.75;19.75;;;;;16.01;47.65;100461.09;5061398;28;45171;-61
2023/04/21 10:36:45;;;;;;;;;17.00;17.00;;;;;16.32;47.89;100464.25;5059436;28;45451;-61
2023/04/21 10:39:35;;;;;;;;;22.00;19.75;;;;;16.64;47.41;100459.31;5061039;28;45306;-58
2023/04/21 10:42:12;;;;;;;;;18.00;14.50;;;;;16.96;47.43;100460.56;5061272;28;45470;-60
2023/04/21 10:44:50;;;;;;;;;22.50;19.25;;;;;17.24;47.41;100455.81;5060870;28;45256;-60
2023/04/21 10:47:27;;;;;;;;;23.00;19.75;;;;;17.56;47.30;100446.31;5060605;28;46407;-61
2023/04/21 10:49:54;;;;;;;;;19.75;18.25;;;;;17.82;47.24;100446.81;5060957;28;45319;-59
2023/04/21 10:52:20;;;;;;;;;19.00;14.75;;;;;18.09;47.60;100452.63;5060891;28;45324;-60
2023/04/21 10:54:45;;;;;;;;;20.50;19.25;;;;;18.33;46.80;100449.66;5060622;28;45335;-60
2023/04/21 10:57:14;;;;;;;;;16.50;15.75;;;;;18.51;46.34;100440.72;5060699;28;45304;-60
2023/04/21 10:59:40;;;;;;;;;15.75;15.50;;;;;18.70;46.16;100442.41;5042512;28;45202;-59
2023/04/21 11:02:07;;;;;;;;;17.00;17.00;;;;;18.87;46.17;100432.66;5060663;28;45309;-59
2023/04/21 11:04:32;;;;;;;;;18.00;16.75;;;;;19.00;45.85;100428.41;5060885;28;45447;-61
2023/04/21 11:07:12;;;;;;;;;18.00;18.00;;;;;19.15;45.34;100422.25;5060462;28;45324;-59
2023/04/21 11:09:39;;;;;;;;;20.50;19.00;;;;;19.33;45.35;100424.84;5060445;28;45229;-59